sensor_id;sensor_type;location;lat;lon;timestamp;P1;durP1;ratioP1;P2;durP2;ratioP2
72065;SDS011;59939;52.516;13.420;2022-08-05T00:01:54;10.55;;;4.68;;
72065;SDS011;59939;52.516;13.420;2022-08-05T00:04:58;11.20;;;4.63;;
72065;SDS011;59939;52.516;13.420;2022-08-05T00:08:03;12.63;;;5.18;;
72065;SDS011;59939;52.516;13.420;2022-08-05T00:11:11;10.85;;;5.35;;
72065;SDS011;59939;52.516;13.420;2022-08-05T00:14:17;9.88;;;4.47;;
72065;SDS011;59939;52.516;13.420;2022-08-05T00:17:23;12.15;;;5.07;;
72065;SDS011;59939;52.516;13.420;2022-08-05T00:20:27;11.00;;;4.82;;
72065;SDS011;59939;52.516;13.420;2022-08-05T00:23:31;11.60;;;4.93;;
72065;SDS011;59939;52.516;13.420;2022-08-05T00:26:36;13.68;;;5.07;;
72065;SDS011;59939;52.516;13.420;2022-08-05T00:29:40;11.73;;;5.38;;
72065;SDS011;59939;52.516;13.420;2022-08-05T00:32:45;10.00;;;5.40;;
72065;SDS011;59939;52.516;13.420;2022-08-05T00:35:49;11.35;;;5.30;;
72065;SDS011;59939;52.516;13.420;2022-08-05T00:38:53;11.00;;;4.70;;
72065;SDS011;59939;52.516;13.420;2022-08-05T00:41:58;12.35;;;5.35;;
72065;SDS011;59939;52.516;13.420;2022-08-05T00:45:09;10.65;;;4.80;;
72065;SDS011;59939;52.516;13.420;2022-08-05T00:48:21;13.27;;;4.93;;
72065;SDS011;59939;52.516;13.420;2022-08-05T00:51:25;11.57;;;4.95;;
72065;SDS011;59939;52.516;13.420;2022-08-05T00:54:30;12.20;;;5.30;;
72065;SDS011;59939;52.516;13.420;2022-08-05T00:57:37;15.85;;;5.60;;
72065;SDS011;59939;52.516;13.420;2022-08-05T01:00:41;12.60;;;5.50;;
72065;SDS011;59939;52.516;13.420;2022-08-05T01:03:46;15.13;;;6.43;;
72065;SDS011;59939;52.516;13.420;2022-08-05T01:06:50;12.68;;;5.80;;
72065;SDS011;59939;52.516;13.420;2022-08-05T01:09:54;17.02;;;7.00;;
72065;SDS011;59939;52.516;13.420;2022-08-05T01:13:03;14.98;;;6.75;;
72065;SDS011;59939;52.516;13.420;2022-08-05T01:16:19;14.93;;;6.00;;
72065;SDS011;59939;52.516;13.420;2022-08-05T01:23:10;12.25;;;5.45;;
72065;SDS011;59939;52.516;13.420;2022-08-05T01:26:34;14.70;;;6.22;;
72065;SDS011;59939;52.516;13.420;2022-08-05T01:30:04;13.82;;;6.28;;
72065;SDS011;59939;52.516;13.420;2022-08-05T01:33:08;13.18;;;5.70;;
72065;SDS011;59939;52.516;13.420;2022-08-05T01:36:16;13.40;;;5.90;;
72065;SDS011;59939;52.516;13.420;2022-08-05T01:39:37;14.40;;;6.47;;
72065;SDS011;59939;52.516;13.420;2022-08-05T01:42:43;16.75;;;7.07;;
72065;SDS011;59939;52.516;13.420;2022-08-05T01:45:52;15.82;;;6.78;;
72065;SDS011;59939;52.516;13.420;2022-08-05T01:49:00;15.30;;;6.90;;
72065;SDS011;59939;52.516;13.420;2022-08-05T01:52:07;15.60;;;6.53;;
72065;SDS011;59939;52.516;13.420;2022-08-05T01:55:23;14.80;;;6.85;;
72065;SDS011;59939;52.516;13.420;2022-08-05T01:58:30;14.63;;;6.63;;
72065;SDS011;59939;52.516;13.420;2022-08-05T02:01:36;14.98;;;6.18;;
72065;SDS011;59939;52.516;13.420;2022-08-05T02:04:41;14.73;;;6.05;;
72065;SDS011;59939;52.516;13.420;2022-08-05T02:07:48;13.82;;;6.15;;
72065;SDS011;59939;52.516;13.420;2022-08-05T02:10:57;14.25;;;6.00;;
72065;SDS011;59939;52.516;13.420;2022-08-05T02:14:16;17.00;;;6.03;;
72065;SDS011;59939;52.516;13.420;2022-08-05T02:17:44;14.80;;;6.10;;
72065;SDS011;59939;52.516;13.420;2022-08-05T02:24:20;13.63;;;5.90;;
72065;SDS011;59939;52.516;13.420;2022-08-05T02:27:26;15.80;;;6.13;;
72065;SDS011;59939;52.516;13.420;2022-08-05T02:30:39;12.82;;;5.55;;
72065;SDS011;59939;52.516;13.420;2022-08-05T02:33:56;12.48;;;5.75;;
72065;SDS011;59939;52.516;13.420;2022-08-05T02:37:04;17.55;;;6.40;;
72065;SDS011;59939;52.516;13.420;2022-08-05T02:40:13;10.20;;;5.43;;
72065;SDS011;59939;52.516;13.420;2022-08-05T02:43:19;16.38;;;6.20;;
72065;SDS011;59939;52.516;13.420;2022-08-05T02:46:29;13.70;;;5.50;;
72065;SDS011;59939;52.516;13.420;2022-08-05T02:49:34;15.75;;;5.47;;
72065;SDS011;59939;52.516;13.420;2022-08-05T02:52:48;16.10;;;5.93;;
72065;SDS011;59939;52.516;13.420;2022-08-05T02:55:52;16.02;;;5.28;;
72065;SDS011;59939;52.516;13.420;2022-08-05T02:58:58;12.77;;;5.93;;
72065;SDS011;59939;52.516;13.420;2022-08-05T03:02:05;14.38;;;4.93;;
72065;SDS011;59939;52.516;13.420;2022-08-05T03:05:12;13.75;;;5.05;;
72065;SDS011;59939;52.516;13.420;2022-08-05T03:08:18;14.15;;;5.20;;
72065;SDS011;59939;52.516;13.420;2022-08-05T03:11:30;13.27;;;5.20;;
72065;SDS011;59939;52.516;13.420;2022-08-05T03:14:34;14.93;;;5.18;;
72065;SDS011;59939;52.516;13.420;2022-08-05T03:17:39;15.60;;;5.57;;
72065;SDS011;59939;52.516;13.420;2022-08-05T03:20:43;14.38;;;5.85;;
72065;SDS011;59939;52.516;13.420;2022-08-05T03:23:48;14.55;;;5.70;;
72065;SDS011;59939;52.516;13.420;2022-08-05T03:26:52;12.93;;;5.50;;
72065;SDS011;59939;52.516;13.420;2022-08-05T03:29:58;13.50;;;5.28;;
72065;SDS011;59939;52.516;13.420;2022-08-05T03:33:03;13.38;;;5.40;;
72065;SDS011;59939;52.516;13.420;2022-08-05T03:36:10;12.60;;;5.05;;
72065;SDS011;59939;52.516;13.420;2022-08-05T03:39:17;13.63;;;5.20;;
72065;SDS011;59939;52.516;13.420;2022-08-05T03:42:21;13.70;;;5.68;;
72065;SDS011;59939;52.516;13.420;2022-08-05T03:45:25;14.52;;;5.93;;
72065;SDS011;59939;52.516;13.420;2022-08-05T03:48:31;12.82;;;5.55;;
72065;SDS011;59939;52.516;13.420;2022-08-05T03:55:13;13.07;;;5.53;;
72065;SDS011;59939;52.516;13.420;2022-08-05T03:58:23;13.23;;;5.55;;
72065;SDS011;59939;52.516;13.420;2022-08-05T04:01:30;13.00;;;5.45;;
72065;SDS011;59939;52.516;13.420;2022-08-05T04:04:38;14.98;;;5.60;;
72065;SDS011;59939;52.516;13.420;2022-08-05T04:07:43;12.40;;;5.43;;
72065;SDS011;59939;52.516;13.420;2022-08-05T04:10:47;15.40;;;6.15;;
72065;SDS011;59939;52.516;13.420;2022-08-05T04:13:55;13.30;;;5.80;;
72065;SDS011;59939;52.516;13.420;2022-08-05T04:16:59;13.88;;;5.28;;
72065;SDS011;59939;52.516;13.420;2022-08-05T04:20:06;13.18;;;6.18;;
72065;SDS011;59939;52.516;13.420;2022-08-05T04:23:20;10.68;;;5.32;;
72065;SDS011;59939;52.516;13.420;2022-08-05T04:26:28;13.82;;;5.20;;
72065;SDS011;59939;52.516;13.420;2022-08-05T04:29:35;12.25;;;5.55;;
72065;SDS011;59939;52.516;13.420;2022-08-05T04:32:40;11.25;;;6.15;;
72065;SDS011;59939;52.516;13.420;2022-08-05T04:35:52;14.48;;;5.65;;
72065;SDS011;59939;52.516;13.420;2022-08-05T04:39:10;11.95;;;5.38;;
72065;SDS011;59939;52.516;13.420;2022-08-05T04:42:15;13.57;;;5.57;;
72065;SDS011;59939;52.516;13.420;2022-08-05T04:45:19;15.90;;;5.80;;
72065;SDS011;59939;52.516;13.420;2022-08-05T04:48:26;15.63;;;5.63;;
72065;SDS011;59939;52.516;13.420;2022-08-05T04:51:46;14.02;;;5.35;;
72065;SDS011;59939;52.516;13.420;2022-08-05T04:54:50;14.75;;;5.40;;
72065;SDS011;59939;52.516;13.420;2022-08-05T04:57:55;14.85;;;5.72;;
72065;SDS011;59939;52.516;13.420;2022-08-05T05:01:01;15.98;;;5.65;;
72065;SDS011;59939;52.516;13.420;2022-08-05T05:04:08;13.27;;;5.47;;
72065;SDS011;59939;52.516;13.420;2022-08-05T05:07:14;16.95;;;5.65;;
72065;SDS011;59939;52.516;13.420;2022-08-05T05:10:21;11.30;;;5.03;;
72065;SDS011;59939;52.516;13.420;2022-08-05T05:13:25;15.05;;;5.70;;
72065;SDS011;59939;52.516;13.420;2022-08-05T05:16:32;12.23;;;5.22;;
72065;SDS011;59939;52.516;13.420;2022-08-05T05:19:38;12.85;;;5.50;;
72065;SDS011;59939;52.516;13.420;2022-08-05T05:22:43;12.30;;;5.75;;
72065;SDS011;59939;52.516;13.420;2022-08-05T05:25:56;11.02;;;5.72;;
72065;SDS011;59939;52.516;13.420;2022-08-05T05:29:03;14.05;;;5.82;;
72065;SDS011;59939;52.516;13.420;2022-08-05T05:32:23;12.45;;;5.28;;
72065;SDS011;59939;52.516;13.420;2022-08-05T05:35:35;23.60;;;6.00;;
72065;SDS011;59939;52.516;13.420;2022-08-05T05:38:40;16.70;;;5.47;;
72065;SDS011;59939;52.516;13.420;2022-08-05T05:41:44;14.80;;;6.82;;
72065;SDS011;59939;52.516;13.420;2022-08-05T05:44:49;15.40;;;5.95;;
72065;SDS011;59939;52.516;13.420;2022-08-05T05:47:53;15.02;;;5.97;;
72065;SDS011;59939;52.516;13.420;2022-08-05T05:51:17;12.68;;;5.50;;
72065;SDS011;59939;52.516;13.420;2022-08-05T05:54:23;13.85;;;6.15;;
72065;SDS011;59939;52.516;13.420;2022-08-05T05:57:28;13.88;;;5.20;;
72065;SDS011;59939;52.516;13.420;2022-08-05T06:00:32;14.18;;;5.80;;
72065;SDS011;59939;52.516;13.420;2022-08-05T06:03:44;11.82;;;5.25;;
72065;SDS011;59939;52.516;13.420;2022-08-05T06:06:50;13.40;;;5.38;;
72065;SDS011;59939;52.516;13.420;2022-08-05T06:09:54;13.18;;;5.05;;
72065;SDS011;59939;52.516;13.420;2022-08-05T06:13:01;12.35;;;5.05;;
72065;SDS011;59939;52.516;13.420;2022-08-05T06:16:07;15.25;;;5.40;;
72065;SDS011;59939;52.516;13.420;2022-08-05T06:19:18;16.85;;;5.75;;
72065;SDS011;59939;52.516;13.420;2022-08-05T06:22:26;21.58;;;5.32;;
72065;SDS011;59939;52.516;13.420;2022-08-05T06:25:32;17.27;;;5.95;;
72065;SDS011;59939;52.516;13.420;2022-08-05T06:28:38;14.60;;;4.75;;
72065;SDS011;59939;52.516;13.420;2022-08-05T06:31:43;16.73;;;4.05;;
72065;SDS011;59939;52.516;13.420;2022-08-05T06:34:55;13.05;;;4.78;;
72065;SDS011;59939;52.516;13.420;2022-08-05T06:38:03;14.32;;;5.97;;
72065;SDS011;59939;52.516;13.420;2022-08-05T06:41:08;13.35;;;4.50;;
72065;SDS011;59939;52.516;13.420;2022-08-05T06:44:12;16.02;;;4.50;;
72065;SDS011;59939;52.516;13.420;2022-08-05T06:47:16;8.13;;;3.33;;
72065;SDS011;59939;52.516;13.420;2022-08-05T06:50:20;10.00;;;3.83;;
72065;SDS011;59939;52.516;13.420;2022-08-05T06:53:25;9.57;;;3.70;;
72065;SDS011;59939;52.516;13.420;2022-08-05T06:56:30;13.30;;;4.22;;
72065;SDS011;59939;52.516;13.420;2022-08-05T06:59:35;10.00;;;4.07;;
72065;SDS011;59939;52.516;13.420;2022-08-05T07:02:41;11.57;;;3.70;;
72065;SDS011;59939;52.516;13.420;2022-08-05T07:05:46;11.25;;;3.97;;
72065;SDS011;59939;52.516;13.420;2022-08-05T07:08:50;9.55;;;3.45;;
72065;SDS011;59939;52.516;13.420;2022-08-05T07:11:55;9.10;;;3.60;;
72065;SDS011;59939;52.516;13.420;2022-08-05T07:15:00;11.10;;;3.30;;
72065;SDS011;59939;52.516;13.420;2022-08-05T07:18:28;8.68;;;3.70;;
72065;SDS011;59939;52.516;13.420;2022-08-05T07:21:33;7.07;;;2.95;;
72065;SDS011;59939;52.516;13.420;2022-08-05T07:24:37;9.48;;;3.38;;
72065;SDS011;59939;52.516;13.420;2022-08-05T07:27:43;9.90;;;3.15;;
72065;SDS011;59939;52.516;13.420;2022-08-05T07:30:48;9.70;;;3.20;;
72065;SDS011;59939;52.516;13.420;2022-08-05T07:33:54;8.85;;;3.63;;
72065;SDS011;59939;52.516;13.420;2022-08-05T07:36:59;12.18;;;3.53;;
72065;SDS011;59939;52.516;13.420;2022-08-05T07:40:06;11.65;;;3.50;;
72065;SDS011;59939;52.516;13.420;2022-08-05T07:43:11;9.90;;;3.65;;
72065;SDS011;59939;52.516;13.420;2022-08-05T07:46:24;10.25;;;3.33;;
72065;SDS011;59939;52.516;13.420;2022-08-05T07:49:29;8.32;;;3.40;;
72065;SDS011;59939;52.516;13.420;2022-08-05T07:52:38;10.68;;;3.83;;
72065;SDS011;59939;52.516;13.420;2022-08-05T07:55:42;10.23;;;3.90;;
72065;SDS011;59939;52.516;13.420;2022-08-05T07:58:47;8.32;;;3.40;;
72065;SDS011;59939;52.516;13.420;2022-08-05T08:01:52;11.15;;;3.65;;
72065;SDS011;59939;52.516;13.420;2022-08-05T08:04:56;9.13;;;3.50;;
72065;SDS011;59939;52.516;13.420;2022-08-05T08:08:00;8.60;;;3.53;;
72065;SDS011;59939;52.516;13.420;2022-08-05T08:11:05;9.90;;;3.88;;
72065;SDS011;59939;52.516;13.420;2022-08-05T08:14:09;10.50;;;3.85;;
72065;SDS011;59939;52.516;13.420;2022-08-05T08:17:14;9.40;;;3.53;;
72065;SDS011;59939;52.516;13.420;2022-08-05T08:20:22;11.27;;;3.67;;
72065;SDS011;59939;52.516;13.420;2022-08-05T08:23:28;8.82;;;3.22;;
72065;SDS011;59939;52.516;13.420;2022-08-05T08:26:35;13.38;;;4.55;;
72065;SDS011;59939;52.516;13.420;2022-08-05T08:29:39;8.68;;;3.40;;
72065;SDS011;59939;52.516;13.420;2022-08-05T08:32:44;9.02;;;3.20;;
72065;SDS011;59939;52.516;13.420;2022-08-05T08:35:49;8.50;;;2.92;;
72065;SDS011;59939;52.516;13.420;2022-08-05T08:38:56;8.90;;;3.22;;
72065;SDS011;59939;52.516;13.420;2022-08-05T08:42:03;7.13;;;2.92;;
72065;SDS011;59939;52.516;13.420;2022-08-05T08:45:10;7.82;;;3.53;;
72065;SDS011;59939;52.516;13.420;2022-08-05T08:48:15;10.20;;;2.88;;
72065;SDS011;59939;52.516;13.420;2022-08-05T08:51:25;6.63;;;2.83;;
72065;SDS011;59939;52.516;13.420;2022-08-05T08:54:30;10.77;;;3.30;;
72065;SDS011;59939;52.516;13.420;2022-08-05T08:57:34;9.50;;;3.13;;
72065;SDS011;59939;52.516;13.420;2022-08-05T09:00:39;10.20;;;3.20;;
72065;SDS011;59939;52.516;13.420;2022-08-05T09:03:46;8.98;;;3.38;;
72065;SDS011;59939;52.516;13.420;2022-08-05T09:06:58;13.35;;;3.50;;
72065;SDS011;59939;52.516;13.420;2022-08-05T09:10:03;9.45;;;3.40;;
72065;SDS011;59939;52.516;13.420;2022-08-05T09:13:15;10.57;;;3.75;;
72065;SDS011;59939;52.516;13.420;2022-08-05T09:16:19;7.22;;;3.17;;
72065;SDS011;59939;52.516;13.420;2022-08-05T09:19:29;9.40;;;3.10;;
72065;SDS011;59939;52.516;13.420;2022-08-05T09:26:13;6.97;;;3.05;;
72065;SDS011;59939;52.516;13.420;2022-08-05T09:29:36;6.65;;;2.97;;
72065;SDS011;59939;52.516;13.420;2022-08-05T09:33:00;8.50;;;3.53;;
72065;SDS011;59939;52.516;13.420;2022-08-05T09:36:07;8.52;;;3.25;;
72065;SDS011;59939;52.516;13.420;2022-08-05T09:42:41;11.75;;;3.53;;
72065;SDS011;59939;52.516;13.420;2022-08-05T09:45:48;8.10;;;3.10;;
72065;SDS011;59939;52.516;13.420;2022-08-05T09:48:52;8.02;;;3.28;;
72065;SDS011;59939;52.516;13.420;2022-08-05T09:51:57;10.55;;;3.88;;
72065;SDS011;59939;52.516;13.420;2022-08-05T09:55:04;8.73;;;3.20;;
72065;SDS011;59939;52.516;13.420;2022-08-05T09:58:11;5.82;;;2.70;;
72065;SDS011;59939;52.516;13.420;2022-08-05T10:01:16;8.60;;;3.35;;
72065;SDS011;59939;52.516;13.420;2022-08-05T10:04:21;11.07;;;3.30;;
72065;SDS011;59939;52.516;13.420;2022-08-05T10:10:57;10.60;;;3.20;;
72065;SDS011;59939;52.516;13.420;2022-08-05T10:14:28;10.13;;;3.63;;
72065;SDS011;59939;52.516;13.420;2022-08-05T10:17:34;7.65;;;3.22;;
72065;SDS011;59939;52.516;13.420;2022-08-05T10:20:51;7.10;;;2.85;;
72065;SDS011;59939;52.516;13.420;2022-08-05T10:23:58;8.23;;;3.00;;
72065;SDS011;59939;52.516;13.420;2022-08-05T10:27:06;7.70;;;3.10;;
72065;SDS011;59939;52.516;13.420;2022-08-05T10:30:10;8.52;;;2.85;;
72065;SDS011;59939;52.516;13.420;2022-08-05T10:33:17;11.70;;;2.97;;
72065;SDS011;59939;52.516;13.420;2022-08-05T10:36:21;9.35;;;3.05;;
72065;SDS011;59939;52.516;13.420;2022-08-05T10:39:27;11.07;;;3.47;;
72065;SDS011;59939;52.516;13.420;2022-08-05T10:42:34;8.00;;;3.00;;
72065;SDS011;59939;52.516;13.420;2022-08-05T10:45:53;10.45;;;3.20;;
72065;SDS011;59939;52.516;13.420;2022-08-05T10:49:04;7.60;;;2.72;;
72065;SDS011;59939;52.516;13.420;2022-08-05T10:52:09;7.15;;;2.80;;
72065;SDS011;59939;52.516;13.420;2022-08-05T10:55:15;8.95;;;3.00;;
72065;SDS011;59939;52.516;13.420;2022-08-05T10:58:20;8.40;;;3.03;;
72065;SDS011;59939;52.516;13.420;2022-08-05T11:01:34;9.88;;;3.28;;
72065;SDS011;59939;52.516;13.420;2022-08-05T11:04:44;8.48;;;2.92;;
72065;SDS011;59939;52.516;13.420;2022-08-05T11:07:59;7.03;;;2.80;;
72065;SDS011;59939;52.516;13.420;2022-08-05T11:11:31;6.22;;;2.55;;
72065;SDS011;59939;52.516;13.420;2022-08-05T11:14:39;8.00;;;3.42;;
72065;SDS011;59939;52.516;13.420;2022-08-05T11:21:35;7.63;;;2.97;;
72065;SDS011;59939;52.516;13.420;2022-08-05T11:24:44;6.32;;;2.33;;
72065;SDS011;59939;52.516;13.420;2022-08-05T11:27:50;6.32;;;2.58;;
72065;SDS011;59939;52.516;13.420;2022-08-05T11:34:06;5.20;;;2.58;;
72065;SDS011;59939;52.516;13.420;2022-08-05T11:37:25;6.60;;;2.55;;
72065;SDS011;59939;52.516;13.420;2022-08-05T11:41:02;5.45;;;2.47;;
72065;SDS011;59939;52.516;13.420;2022-08-05T11:44:19;6.93;;;2.70;;
72065;SDS011;59939;52.516;13.420;2022-08-05T11:47:32;6.78;;;2.70;;
72065;SDS011;59939;52.516;13.420;2022-08-05T11:50:38;7.45;;;3.13;;
72065;SDS011;59939;52.516;13.420;2022-08-05T11:53:43;9.57;;;3.50;;
72065;SDS011;59939;52.516;13.420;2022-08-05T11:56:49;10.43;;;3.55;;
72065;SDS011;59939;52.516;13.420;2022-08-05T11:59:56;8.18;;;3.33;;
72065;SDS011;59939;52.516;13.420;2022-08-05T12:03:15;6.60;;;2.97;;
72065;SDS011;59939;52.516;13.420;2022-08-05T12:06:33;8.80;;;3.33;;
72065;SDS011;59939;52.516;13.420;2022-08-05T12:09:42;7.57;;;2.90;;
72065;SDS011;59939;52.516;13.420;2022-08-05T12:12:51;6.32;;;3.13;;
72065;SDS011;59939;52.516;13.420;2022-08-05T12:16:16;10.27;;;3.13;;
72065;SDS011;59939;52.516;13.420;2022-08-05T12:19:21;7.63;;;3.20;;
72065;SDS011;59939;52.516;13.420;2022-08-05T12:22:29;8.95;;;2.83;;
72065;SDS011;59939;52.516;13.420;2022-08-05T12:28:54;7.07;;;2.78;;
72065;SDS011;59939;52.516;13.420;2022-08-05T12:32:10;6.63;;;2.90;;
72065;SDS011;59939;52.516;13.420;2022-08-05T12:35:16;8.20;;;3.28;;
72065;SDS011;59939;52.516;13.420;2022-08-05T12:38:21;6.40;;;3.10;;
72065;SDS011;59939;52.516;13.420;2022-08-05T12:41:33;9.18;;;3.30;;
72065;SDS011;59939;52.516;13.420;2022-08-05T12:44:39;7.97;;;3.55;;
72065;SDS011;59939;52.516;13.420;2022-08-05T12:47:43;9.90;;;3.33;;
72065;SDS011;59939;52.516;13.420;2022-08-05T12:54:17;4.80;;;2.65;;
72065;SDS011;59939;52.516;13.420;2022-08-05T12:57:25;8.27;;;2.95;;
72065;SDS011;59939;52.516;13.420;2022-08-05T13:00:40;7.20;;;2.38;;
72065;SDS011;59939;52.516;13.420;2022-08-05T13:03:48;9.65;;;3.17;;
72065;SDS011;59939;52.516;13.420;2022-08-05T13:07:00;4.70;;;2.45;;
72065;SDS011;59939;52.516;13.420;2022-08-05T13:10:09;5.65;;;2.60;;
72065;SDS011;59939;52.516;13.420;2022-08-05T13:13:20;8.18;;;3.00;;
72065;SDS011;59939;52.516;13.420;2022-08-05T13:20:05;6.45;;;2.70;;
72065;SDS011;59939;52.516;13.420;2022-08-05T13:23:11;8.32;;;2.70;;
72065;SDS011;59939;52.516;13.420;2022-08-05T13:26:16;5.10;;;2.25;;
72065;SDS011;59939;52.516;13.420;2022-08-05T13:29:21;5.82;;;2.67;;
72065;SDS011;59939;52.516;13.420;2022-08-05T13:32:28;5.38;;;2.40;;
72065;SDS011;59939;52.516;13.420;2022-08-05T13:35:34;7.38;;;2.80;;
72065;SDS011;59939;52.516;13.420;2022-08-05T13:38:40;8.88;;;2.65;;
72065;SDS011;59939;52.516;13.420;2022-08-05T13:41:46;4.78;;;2.60;;
72065;SDS011;59939;52.516;13.420;2022-08-05T13:44:58;5.93;;;2.50;;
72065;SDS011;59939;52.516;13.420;2022-08-05T13:48:04;5.47;;;2.78;;
72065;SDS011;59939;52.516;13.420;2022-08-05T13:51:09;6.13;;;2.90;;
72065;SDS011;59939;52.516;13.420;2022-08-05T13:54:23;8.85;;;2.85;;
72065;SDS011;59939;52.516;13.420;2022-08-05T13:57:30;8.65;;;3.00;;
72065;SDS011;59939;52.516;13.420;2022-08-05T14:00:36;6.93;;;2.83;;
72065;SDS011;59939;52.516;13.420;2022-08-05T14:03:41;5.97;;;3.00;;
72065;SDS011;59939;52.516;13.420;2022-08-05T14:06:49;8.88;;;2.88;;
72065;SDS011;59939;52.516;13.420;2022-08-05T14:09:55;8.05;;;3.00;;
72065;SDS011;59939;52.516;13.420;2022-08-05T14:13:01;4.88;;;2.03;;
72065;SDS011;59939;52.516;13.420;2022-08-05T14:16:05;6.85;;;2.78;;
72065;SDS011;59939;52.516;13.420;2022-08-05T14:19:12;6.60;;;3.03;;
72065;SDS011;59939;52.516;13.420;2022-08-05T14:22:16;7.53;;;3.33;;
72065;SDS011;59939;52.516;13.420;2022-08-05T14:25:23;7.75;;;3.20;;
72065;SDS011;59939;52.516;13.420;2022-08-05T14:28:32;5.75;;;3.13;;
72065;SDS011;59939;52.516;13.420;2022-08-05T14:31:36;11.25;;;3.80;;
72065;SDS011;59939;52.516;13.420;2022-08-05T14:34:41;9.52;;;3.58;;
72065;SDS011;59939;52.516;13.420;2022-08-05T14:37:52;10.88;;;3.83;;
72065;SDS011;59939;52.516;13.420;2022-08-05T14:40:58;9.98;;;3.50;;
72065;SDS011;59939;52.516;13.420;2022-08-05T14:44:03;9.00;;;3.78;;
72065;SDS011;59939;52.516;13.420;2022-08-05T14:47:09;10.25;;;3.72;;
72065;SDS011;59939;52.516;13.420;2022-08-05T14:50:13;9.02;;;3.97;;
72065;SDS011;59939;52.516;13.420;2022-08-05T14:53:22;8.48;;;4.13;;
72065;SDS011;59939;52.516;13.420;2022-08-05T14:56:26;8.75;;;3.70;;
72065;SDS011;59939;52.516;13.420;2022-08-05T14:59:30;9.77;;;4.05;;
72065;SDS011;59939;52.516;13.420;2022-08-05T15:02:34;12.00;;;4.35;;
72065;SDS011;59939;52.516;13.420;2022-08-05T15:05:39;10.05;;;4.07;;
72065;SDS011;59939;52.516;13.420;2022-08-05T15:08:43;9.07;;;4.38;;
72065;SDS011;59939;52.516;13.420;2022-08-05T15:11:48;11.32;;;4.55;;
72065;SDS011;59939;52.516;13.420;2022-08-05T15:14:52;9.82;;;4.63;;
72065;SDS011;59939;52.516;13.420;2022-08-05T15:17:56;11.77;;;4.63;;
72065;SDS011;59939;52.516;13.420;2022-08-05T15:21:01;9.57;;;4.07;;
72065;SDS011;59939;52.516;13.420;2022-08-05T15:24:07;9.25;;;4.30;;
72065;SDS011;59939;52.516;13.420;2022-08-05T15:27:11;9.82;;;4.47;;
72065;SDS011;59939;52.516;13.420;2022-08-05T15:30:22;12.07;;;4.75;;
72065;SDS011;59939;52.516;13.420;2022-08-05T15:33:28;10.43;;;4.55;;
72065;SDS011;59939;52.516;13.420;2022-08-05T15:36:32;9.65;;;4.50;;
72065;SDS011;59939;52.516;13.420;2022-08-05T15:39:36;10.32;;;4.63;;
72065;SDS011;59939;52.516;13.420;2022-08-05T15:42:41;9.70;;;4.28;;
72065;SDS011;59939;52.516;13.420;2022-08-05T15:45:53;10.88;;;4.57;;
72065;SDS011;59939;52.516;13.420;2022-08-05T15:48:58;10.57;;;4.53;;
72065;SDS011;59939;52.516;13.420;2022-08-05T15:52:04;12.45;;;5.43;;
72065;SDS011;59939;52.516;13.420;2022-08-05T15:55:12;11.55;;;4.70;;
72065;SDS011;59939;52.516;13.420;2022-08-05T15:58:17;11.80;;;4.78;;
72065;SDS011;59939;52.516;13.420;2022-08-05T16:01:28;11.13;;;4.57;;
72065;SDS011;59939;52.516;13.420;2022-08-05T16:04:33;9.30;;;4.03;;
72065;SDS011;59939;52.516;13.420;2022-08-05T16:07:37;14.38;;;5.30;;
72065;SDS011;59939;52.516;13.420;2022-08-05T16:10:42;9.93;;;4.53;;
72065;SDS011;59939;52.516;13.420;2022-08-05T16:17:16;11.57;;;5.20;;
72065;SDS011;59939;52.516;13.420;2022-08-05T16:20:20;10.93;;;4.30;;
72065;SDS011;59939;52.516;13.420;2022-08-05T16:23:25;11.68;;;4.60;;
72065;SDS011;59939;52.516;13.420;2022-08-05T16:26:30;12.93;;;5.18;;
72065;SDS011;59939;52.516;13.420;2022-08-05T16:29:41;12.02;;;4.88;;
72065;SDS011;59939;52.516;13.420;2022-08-05T16:32:47;17.33;;;5.65;;
72065;SDS011;59939;52.516;13.420;2022-08-05T16:35:52;10.57;;;4.75;;
72065;SDS011;59939;52.516;13.420;2022-08-05T16:38:56;15.38;;;5.68;;
72065;SDS011;59939;52.516;13.420;2022-08-05T16:42:01;12.10;;;5.88;;
72065;SDS011;59939;52.516;13.420;2022-08-05T16:45:13;16.13;;;6.75;;
72065;SDS011;59939;52.516;13.420;2022-08-05T16:48:17;15.02;;;6.72;;
72065;SDS011;59939;52.516;13.420;2022-08-05T16:51:22;14.63;;;6.47;;
72065;SDS011;59939;52.516;13.420;2022-08-05T16:54:26;14.18;;;6.13;;
72065;SDS011;59939;52.516;13.420;2022-08-05T16:57:33;12.45;;;5.80;;
72065;SDS011;59939;52.516;13.420;2022-08-05T17:00:37;15.32;;;5.85;;
72065;SDS011;59939;52.516;13.420;2022-08-05T17:03:42;14.32;;;5.53;;
72065;SDS011;59939;52.516;13.420;2022-08-05T17:06:47;12.35;;;5.38;;
72065;SDS011;59939;52.516;13.420;2022-08-05T17:09:52;14.25;;;5.53;;
72065;SDS011;59939;52.516;13.420;2022-08-05T17:12:56;12.07;;;4.88;;
72065;SDS011;59939;52.516;13.420;2022-08-05T17:16:00;10.75;;;4.15;;
72065;SDS011;59939;52.516;13.420;2022-08-05T17:19:16;7.07;;;3.28;;
72065;SDS011;59939;52.516;13.420;2022-08-05T17:22:20;9.52;;;3.67;;
72065;SDS011;59939;52.516;13.420;2022-08-05T17:25:24;11.45;;;3.65;;
72065;SDS011;59939;52.516;13.420;2022-08-05T17:28:36;9.15;;;3.17;;
72065;SDS011;59939;52.516;13.420;2022-08-05T17:31:41;9.90;;;3.13;;
72065;SDS011;59939;52.516;13.420;2022-08-05T17:34:47;7.90;;;2.67;;
72065;SDS011;59939;52.516;13.420;2022-08-05T17:37:59;6.90;;;2.28;;
72065;SDS011;59939;52.516;13.420;2022-08-05T17:41:04;8.10;;;2.13;;
72065;SDS011;59939;52.516;13.420;2022-08-05T17:44:09;5.28;;;1.85;;
72065;SDS011;59939;52.516;13.420;2022-08-05T17:47:13;5.80;;;1.90;;
72065;SDS011;59939;52.516;13.420;2022-08-05T17:50:20;5.05;;;1.80;;
72065;SDS011;59939;52.516;13.420;2022-08-05T17:53:35;5.75;;;2.03;;
72065;SDS011;59939;52.516;13.420;2022-08-05T17:56:39;4.28;;;1.90;;
72065;SDS011;59939;52.516;13.420;2022-08-05T17:59:43;4.68;;;1.70;;
72065;SDS011;59939;52.516;13.420;2022-08-05T18:02:49;3.22;;;1.55;;
72065;SDS011;59939;52.516;13.420;2022-08-05T18:05:54;5.03;;;1.35;;
72065;SDS011;59939;52.516;13.420;2022-08-05T18:08:58;3.92;;;1.85;;
72065;SDS011;59939;52.516;13.420;2022-08-05T18:12:10;3.95;;;1.77;;
72065;SDS011;59939;52.516;13.420;2022-08-05T18:15:14;5.95;;;1.70;;
72065;SDS011;59939;52.516;13.420;2022-08-05T18:18:18;4.78;;;1.75;;
72065;SDS011;59939;52.516;13.420;2022-08-05T18:21:22;3.85;;;1.55;;
72065;SDS011;59939;52.516;13.420;2022-08-05T18:24:26;3.90;;;1.50;;
72065;SDS011;59939;52.516;13.420;2022-08-05T18:27:35;7.05;;;1.35;;
72065;SDS011;59939;52.516;13.420;2022-08-05T18:30:39;2.35;;;1.30;;
72065;SDS011;59939;52.516;13.420;2022-08-05T18:33:44;3.33;;;1.48;;
72065;SDS011;59939;52.516;13.420;2022-08-05T18:36:54;3.67;;;1.38;;
72065;SDS011;59939;52.516;13.420;2022-08-05T18:39:58;1.63;;;1.20;;
72065;SDS011;59939;52.516;13.420;2022-08-05T18:43:03;2.25;;;1.58;;
72065;SDS011;59939;52.516;13.420;2022-08-05T18:46:07;2.50;;;1.30;;
72065;SDS011;59939;52.516;13.420;2022-08-05T18:49:12;3.22;;;1.58;;
72065;SDS011;59939;52.516;13.420;2022-08-05T18:52:36;5.15;;;1.40;;
72065;SDS011;59939;52.516;13.420;2022-08-05T18:55:44;3.20;;;1.67;;
72065;SDS011;59939;52.516;13.420;2022-08-05T19:02:18;1.83;;;1.27;;
72065;SDS011;59939;52.516;13.420;2022-08-05T19:05:25;2.47;;;1.40;;
72065;SDS011;59939;52.516;13.420;2022-08-05T19:08:33;2.65;;;1.60;;
72065;SDS011;59939;52.516;13.420;2022-08-05T19:11:39;4.68;;;1.30;;